Time;durP1;ratioP1;P1;durP2;ratioP2;P2;SDS_P1;SDS_P2;PMS_P1;PMS_P2;Temp;Humidity;BMP_temperature;BMP_pressure;BME280_temperature;BME280_humidity;BME280_pressure;Samples;Min_cycle;Max_cycle;Signal;HPM_P1;HPM_P2
2022/02/03 00:00:32;;;;;;;;;;;;;;;10.47;63.07;100800.75;6252199;23;19924;-74
2022/02/03 00:05:44;;;;;;;;;;;;;;;10.40;63.08;100786.44;6263339;23;19914;-74
2022/02/03 00:22:19;;;;;;;;;;;;;;;10.19;64.56;100783.44;6255988;23;20137;-76
2022/02/03 00:24:50;;;;;;;;;;;;;;;10.16;64.79;100783.94;6170033;23;19911;-77
2022/02/03 00:27:21;;;;;;;;;;;;;;;10.14;65.15;100775.16;6229628;23;19919;-77
2022/02/03 00:30:03;;;;;;;;;;;;;;;10.12;64.99;100771.88;6257371;23;19908;-80
2022/02/03 00:49:03;;;;;;;;;;;;;;;9.94;67.11;100741.06;6255868;23;19942;-78
2022/02/03 00:51:29;;;;;;;;;;;;;;;9.92;67.26;100737.75;6228864;23;19947;-75
2022/02/03 00:53:56;;;;;;;;;;;;;;;9.90;68.01;100728.13;6203869;23;19915;-78
2022/02/03 00:56:26;;;;;;;;;;;;;;;9.90;67.92;100726.25;6254477;23;19942;-77
2022/02/03 00:58:54;;;;;;;;;;;;;;;9.90;67.66;100712.59;6254415;23;19934;-77
2022/02/03 01:01:32;;;;;;;;;;;;;;;9.92;67.77;100712.34;6228937;23;19907;-77
2022/02/03 01:04:00;;;;;;;;;;;;;;;9.95;67.72;100698.97;6253834;23;19908;-76
2022/02/03 01:06:28;;;;;;;;;;;;;;;9.97;67.73;100698.72;6228238;23;19908;-76
2022/02/03 01:08:55;;;;;;;;;;;;;;;9.93;67.80;100694.88;6227206;23;19923;-76
2022/02/03 01:11:26;;;;;;;;;;;;;;;9.93;67.94;100695.69;6226556;23;19908;-75
2022/02/03 01:19:45;;;;;;;;;;;;;;;9.80;68.42;100679.69;6258338;22;19931;-76
2022/02/03 01:44:44;;;;;;;;;;;;;;;9.59;69.25;100652.13;6257623;23;19915;-76
2022/02/03 01:47:25;;;;;;;;;;;;;;;9.57;69.33;100648.81;6255500;23;20327;-77
2022/02/03 01:52:33;;;;;;;;;;;;;;;9.49;69.60;100635.63;6265117;23;19915;-76
2022/02/03 01:55:01;;;;;;;;;;;;;;;9.47;69.47;100628.75;6255585;23;19907;-75
2022/02/03 01:57:57;;;;;;;;;;;;;;;9.43;70.03;100631.16;6203163;23;19936;-75
2022/02/03 02:00:23;;;;;;;;;;;;;;;9.44;69.37;100627.34;6202329;23;19907;-75
2022/02/03 02:03:07;;;;;;;;;;;;;;;9.38;70.19;100623.72;6229072;23;19908;-75
2022/02/03 02:05:49;;;;;;;;;;;;;;;9.38;70.29;100628.38;6227676;23;19908;-76
2022/02/03 02:08:25;;;;;;;;;;;;;;;9.37;69.96;100621.25;6229118;23;19998;-75
2022/02/03 02:11:22;;;;;;;;;;;;;;;9.34;70.29;100616.31;6253991;23;19915;-75
2022/02/03 02:14:13;;;;;;;;;;;;;;;9.33;70.43;100622.84;6256434;23;19955;-74
2022/02/03 02:19:21;;;;;;;;;;;;;;;9.28;70.41;100617.34;6256428;22;19916;-76
2022/02/03 02:39:22;;;;;;;;;;;;;;;9.19;69.72;100609.56;6255800;23;19914;-75
2022/02/03 02:45:01;;;;;;;;;;;;;;;;;;;;;
2022/02/03 02:47:44;;;;;;;;;;;;;;;9.16;69.37;100604.63;6255308;23;20322;-75
2022/02/03 02:50:23;;;;;;;;;;;;;;;;;;;;;
2022/02/03 02:53:30;;;;;;;;;;;;;;;9.13;69.40;100601.59;6255353;23;19935;-74
2022/02/03 02:58:38;;;;;;;;;;;;;;;9.03;69.85;100591.34;6256901;23;19943;-75
2022/02/03 03:35:21;;;;;;;;;;;;;;;8.65;68.54;100522.09;6248855;23;20014;-76
2022/02/03 03:37:57;;;;;;;;;;;;;;;8.64;68.30;100512.25;6257089;23;20319;-77
2022/02/03 03:40:38;;;;;;;;;;;;;;;8.61;68.38;100507.31;6230364;23;19908;-76
2022/02/03 03:43:11;;;;;;;;;;;;;;;8.62;68.63;100500.78;6229270;23;20373;-77
2022/02/03 03:45:43;;;;;;;;;;;;;;;8.63;68.86;100496.97;6256559;23;19913;-78
2022/02/03 03:48:38;;;;;;;;;;;;;;;8.63;68.70;100491.53;6229871;23;19911;-77
2022/02/03 03:51:18;;;;;;;;;;;;;;;8.67;68.08;100487.22;6254410;23;19907;-75
2022/02/03 03:54:01;;;;;;;;;;;;;;;8.68;68.27;100484.25;6253982;23;19919;-74
2022/02/03 03:56:50;;;;;;;;;;;;;;;8.72;68.03;100495.47;6253106;23;19911;-75
2022/02/03 04:00:07;;;;;;;;;;;;;;;8.75;68.66;100489.53;6228044;23;19918;-75
2022/02/03 04:42:52;;;;;;;;;;;;;;;8.51;69.82;100440.69;6228870;23;19998;-73
2022/02/03 04:46:02;;;;;;;;;;;;;;;8.48;70.37;100438.44;6254992;23;19930;-73
2022/02/03 04:51:57;;;;;;;;;;;;;;;8.37;70.23;100428.47;6253327;23;19953;-73
2022/02/03 05:05:39;;;;;;;;;;;;;;;8.06;71.14;100422.59;6265417;23;19958;-73
2022/02/03 05:08:31;;;;;;;;;;;;;;;8.04;71.46;100420.09;6227823;23;19916;-71
2022/02/03 05:23:12;;;;;;;;;;;;;;;8.09;72.55;100404.91;6256093;23;19918;-73
2022/02/03 05:25:44;;;;;;;;;;;;;;;8.08;73.30;100398.63;6252808;23;19946;-73
2022/02/03 05:42:56;;;;;;;;;;;;;;;8.06;74.09;100381.72;6254810;23;19914;-74
2022/02/03 05:48:38;;;;;;;;;;;;;;;8.07;73.97;100375.19;6265165;23;19908;-73
2022/02/03 06:05:18;;;;;;;;;;;;;;;7.91;75.23;100348.81;6264426;23;20137;-72
2022/02/03 06:08:34;;;;;;;;;;;;;;;7.92;74.55;100351.28;6224674;23;19939;-74
2022/02/03 06:13:43;;;;;;;;;;;;;;;7.97;74.79;100336.91;6255013;23;19914;-75
2022/02/03 06:22:20;;;;;;;;;;;;;;;;;;;;;
2022/02/03 06:27:23;;;;;;;;;;;;;;;7.86;75.66;100334.06;6254742;23;19939;-73
2022/02/03 06:27:45;;;;;;;;;;;;;;;7.80;76.21;100343.22;6262756;23;19919;-74
2022/02/03 06:30:16;;;;;;;;;;;;;;;7.76;77.04;100331.19;6268283;23;20206;-75
2022/02/03 06:32:50;;;;;;;;;;;;;;;7.80;76.74;100332.34;6259639;23;19918;-74
2022/02/03 06:35:39;;;;;;;;;;;;;;;7.80;77.08;100331.53;6228220;23;19915;-75
2022/02/03 06:38:10;;;;;;;;;;;;;;;7.83;76.68;100342.72;6211135;23;19934;-73
2022/02/03 06:40:35;;;;;;;;;;;;;;;7.82;76.00;100351.94;6255564;23;20007;-76
2022/02/03 06:43:03;;;;;;;;;;;;;;;7.86;77.14;100352.28;6253871;23;19912;-75
2022/02/03 06:45:47;;;;;;;;;;;;;;;7.87;76.51;100353.94;6204169;23;20238;-75
2022/02/03 06:48:17;;;;;;;;;;;;;;;7.90;76.14;100358.06;6229534;23;19911;-75
2022/02/03 06:50:51;;;;;;;;;;;;;;;7.96;76.32;100351.63;6227383;23;19908;-74
2022/02/03 06:53:31;;;;;;;;;;;;;;;7.99;76.85;100357.38;6255468;23;19919;-73
2022/02/03 06:58:50;;;;;;;;;;;;;;;8.03;76.75;100374.03;6264393;23;19918;-74
2022/02/03 07:01:36;;;;;;;;;;;;;;;8.05;76.13;100355.56;6204709;23;19911;-74
2022/02/03 07:04:06;;;;;;;;;;;;;;;8.07;75.64;100341.69;6227594;23;19938;-74
2022/02/03 07:06:36;;;;;;;;;;;;;;;8.08;76.17;100336.00;6253293;23;20393;-74
2022/02/03 07:09:07;;;;;;;;;;;;;;;8.13;76.05;100351.56;6202729;23;19935;-73
2022/02/03 07:11:33;;;;;;;;;;;;;;;8.16;76.01;100349.19;6255014;23;19908;-75
2022/02/03 07:14:03;;;;;;;;;;;;;;;8.18;76.16;100344.28;6228735;23;19938;-74
2022/02/03 07:16:29;;;;;;;;;;;;;;;8.24;76.06;100341.66;6230047;23;19912;-75
2022/02/03 07:19:10;;;;;;;;;;;;;;;;;;;;;
2022/02/03 07:21:47;;;;;;;;;;;;;;;8.28;75.77;100331.88;6231485;23;19931;-75
2022/02/03 07:24:16;;;;;;;;;;;;;;;8.30;75.85;100329.75;6254586;23;19942;-75
2022/02/03 07:26:44;;;;;;;;;;;;;;;8.34;75.42;100328.16;6259418;23;19912;-77
2022/02/03 07:29:11;;;;;;;;;;;;;;;8.36;75.62;100328.72;6257918;23;19911;-77
2022/02/03 07:31:42;;;;;;;;;;;;;;;8.41;75.50;100327.94;6212823;23;19911;-78
2022/02/03 07:34:13;;;;;;;;;;;;;;;8.42;75.59;100333.16;6266263;23;19907;-76
2022/02/03 07:36:51;;;;;;;;;;;;;;;8.44;74.97;100339.22;6260598;23;19908;-76
2022/02/03 07:39:19;;;;;;;;;;;;;;;8.47;74.95;100333.25;6231286;23;19934;-78
2022/02/03 07:41:47;;;;;;;;;;;;;;;8.49;74.85;100339.25;6258640;23;19961;-76
2022/02/03 07:44:18;;;;;;;;;;;;;;;8.51;74.79;100326.22;6257122;23;20005;-77
2022/02/03 07:46:44;;;;;;;;;;;;;;;8.54;74.93;100333.88;6231263;23;19908;-77
2022/02/03 07:49:14;;;;;;;;;;;;;;;8.54;74.63;100336.63;6256926;23;19943;-77
2022/02/03 07:51:41;;;;;;;;;;;;;;;8.51;74.73;100326.22;6256684;23;19907;-76
2022/02/03 07:54:09;;;;;;;;;;;;;;;8.48;74.43;100331.34;6229975;23;19930;-79
2022/02/03 07:56:37;;;;;;;;;;;;;;;8.35;75.03;100335.25;6255621;23;19931;-77
2022/02/03 07:59:05;;;;;;;;;;;;;;;8.19;75.55;100329.59;6257858;23;19956;-80
2022/02/03 08:01:36;;;;;;;;;;;;;;;8.14;75.29;100321.34;6258459;23;19908;-78
2022/02/03 08:04:06;;;;;;;;;;;;;;;8.05;75.35;100320.16;6234851;23;19930;-76
2022/02/03 08:06:36;;;;;;;;;;;;;;;7.96;75.66;100314.31;6256432;23;19918;-74
2022/02/03 08:09:19;;;;;;;;;;;;;;;7.93;75.92;100324.88;6202133;23;19915;-72
2022/02/03 08:11:49;;;;;;;;;;;;;;;7.85;75.80;100318.78;6254039;23;19916;-74
2022/02/03 08:14:23;;;;;;;;;;;;;;;7.75;75.37;100324.06;6225969;23;19908;-73
2022/02/03 08:16:56;;;;;;;;;;;;;;;7.69;76.14;100314.19;6247555;23;19912;-72
2022/02/03 08:19:32;;;;;;;;;;;;;;;7.65;75.98;100315.75;6256469;22;19943;-72
2022/02/03 08:22:02;;;;;;;;;;;;;;;7.61;75.43;100317.34;6237812;23;19938;-76
2022/02/03 08:24:43;;;;;;;;;;;;;;;7.58;75.78;100318.66;6253681;23;19911;-77
2022/02/03 08:30:02;;;;;;;;;;;;;;;7.59;76.52;100320.28;6225519;23;19912;-74
2022/02/03 08:32:21;;;;;;;;;;;;;;;7.75;76.83;100329.53;6249988;23;20593;-72
2022/02/03 08:34:59;;;;;;;;;;;;;;;7.82;75.80;100322.00;6224569;23;20397;-72
2022/02/03 08:37:40;;;;;;;;;;;;;;;7.84;76.10;100316.31;6251182;23;19916;-72
2022/02/03 08:40:12;;;;;;;;;;;;;;;7.83;76.06;100310.06;6252612;23;20379;-72
2022/02/03 08:42:43;;;;;;;;;;;;;;;7.83;75.37;100315.50;6251125;23;20292;-79
2022/02/03 08:45:16;;;;;;;;;;;;;;;7.88;76.39;100316.66;6226637;23;19911;-74
2022/02/03 08:47:51;;;;;;;;;;;;;;;8.02;75.51;100328.84;6225426;23;19917;-75
2022/02/03 08:50:21;;;;;;;;;;;;;;;8.16;75.85;100329.28;6229632;23;19907;-77
2022/02/03 08:53:00;;;;;;;;;;;;;;;8.33;75.66;100321.06;6255322;23;19907;-75
2022/02/03 08:55:33;;;;;;;;;;;;;;;8.41;74.59;100319.78;6206783;23;19998;-74
2022/02/03 09:40:57;;;;;;;;;;;;;;;16.49;50.35;100314.47;6266308;23;19915;-74
2022/02/03 10:02:11;;;;;;;;;;;;;;;13.53;56.75;100292.72;6263211;23;19911;-75
2022/02/03 10:07:38;;;;;;;;;;;;;;;14.09;55.21;100291.31;6217878;23;19912;-75
2022/02/03 10:10:08;;;;;;;;;;;;;;;14.13;55.68;100286.03;6253311;23;19916;-71
2022/02/03 10:12:40;;;;;;;;;;;;;;;14.37;54.72;100291.53;6251456;23;20474;-75
2022/02/03 10:15:11;;;;;;;;;;;;;;;14.04;54.36;100291.34;6252443;23;19907;-80
2022/02/03 10:17:36;;;;;;;;;;;;;;;13.64;55.78;100278.88;6253445;23;19997;-73
2022/02/03 10:20:13;;;;;;;;;;;;;;;13.50;57.06;100289.72;6223286;23;19916;-73
2022/02/03 10:22:50;;;;;;;;;;;;;;;14.31;57.66;100287.22;6201643;23;20334;-74
2022/02/03 10:25:23;;;;;;;;;;;;;;;14.93;52.96;100280.88;6227343;23;19907;-74
2022/02/03 10:28:01;;;;;;;;;;;;;;;14.95;52.41;100284.13;6227322;23;19915;-74
2022/02/03 10:30:34;;;;;;;;;;;;;;;14.72;52.65;100285.84;6253055;23;19919;-74
2022/02/03 10:33:00;;;;;;;;;;;;;;;14.49;53.33;100294.66;6253769;23;19975;-73
2022/02/03 10:35:36;;;;;;;;;;;;;;;14.07;54.13;100299.03;6253679;23;19915;-73
2022/02/03 10:41:52;;;;;;;;;;;;;;;;;;;;;
2022/02/03 11:12:54;;;;;;;;;;;;;;;13.90;59.79;100312.41;6254987;23;19930;-72
2022/02/03 11:15:24;;;;;;;;;;;;;;;14.38;57.16;100315.16;6228204;23;20319;-74
2022/02/03 11:17:50;;;;;;;;;;;;;;;14.55;55.83;100308.34;6230196;23;19919;-73
2022/02/03 11:20:17;;;;;;;;;;;;;;;15.08;56.09;100310.91;6257340;22;19915;-73
2022/02/03 11:22:50;;;;;;;;;;;;;;;15.82;53.52;100299.22;6228711;23;20207;-75
2022/02/03 11:28:04;;;;;;;;;;;;;;;15.19;51.84;100301.38;6266323;23;19911;-74
2022/02/03 11:33:24;;;;;;;;;;;;;;;14.47;53.03;100291.38;6267747;23;19911;-74
2022/02/03 11:44:18;;;;;;;;;;;;;;;12.93;56.90;100282.72;6267506;23;19907;-75
2022/02/03 11:55:21;;;;;;;;;;;;;;;11.70;62.50;100288.75;6251058;23;19908;-74
2022/02/03 12:12:26;;;;;;;;;;;;;;;11.44;66.08;100268.78;6266948;23;19908;-73
2022/02/03 12:18:43;;;;;;;;;;;;;;;11.47;65.53;100251.81;6258239;23;19942;-73
2022/02/03 12:20:41;;;;;;;;;;;;;;;11.48;65.18;100250.72;6240639;23;19919;-73
2022/02/03 12:23:27;;;;;;;;;;;;;;;11.49;65.75;100252.34;6257060;23;20345;-74
2022/02/03 12:26:02;;;;;;;;;;;;;;;11.47;65.58;100236.19;6231101;23;19908;-77
2022/02/03 12:28:46;;;;;;;;;;;;;;;11.55;65.51;100240.28;6231967;23;19908;-77
2022/02/03 12:39:16;;;;;;;;;;;;;;;12.93;61.89;100227.03;6253918;23;19919;-74
2022/02/03 12:41:50;;;;;;;;;;;;;;;13.05;61.23;100227.50;6253018;23;19911;-74
2022/02/03 12:44:21;;;;;;;;;;;;;;;13.13;60.19;100227.94;6254475;23;19914;-74
2022/02/03 12:46:47;;;;;;;;;;;;;;;13.21;60.04;100219.09;6254069;23;20291;-74
2022/02/03 12:49:12;;;;;;;;;;;;;;;13.37;60.09;100219.81;6226064;23;19911;-74
2022/02/03 12:51:40;;;;;;;;;;;;;;;13.46;59.46;100220.00;6252871;23;19919;-73
2022/02/03 12:54:12;;;;;;;;;;;;;;;13.48;57.96;100209.53;6203407;23;19995;-73
2022/02/03 12:56:46;;;;;;;;;;;;;;;13.34;57.96;100209.38;6253083;23;20307;-74
2022/02/03 12:59:26;;;;;;;;;;;;;;;;;;;;;
2022/02/03 13:02:07;;;;;;;;;;;;;;;12.65;58.40;100193.75;6252595;23;19950;-73
2022/02/03 13:11:05;;;;;;;;;;;;;;;12.56;60.25;100195.47;6159169;23;19995;-73
2022/02/03 13:39:22;;;;;;;;;;;;;;;12.81;58.17;100201.88;6258282;23;20491;-72
2022/02/03 13:41:50;;;;;;;;;;;;;;;12.88;58.54;100202.38;6230457;23;19912;-71
2022/02/03 13:44:17;;;;;;;;;;;;;;;12.90;58.69;100187.25;6230984;23;19908;-72
2022/02/03 13:46:50;;;;;;;;;;;;;;;12.87;58.92;100195.25;6231515;23;19927;-71
2022/02/03 13:49:26;;;;;;;;;;;;;;;12.72;58.83;100183.28;6257579;23;19915;-71
2022/02/03 13:52:00;;;;;;;;;;;;;;;12.70;59.85;100177.28;6257934;23;19949;-70
2022/02/03 13:54:53;;;;;;;;;;;;;;;12.89;60.26;100171.06;6254902;23;19908;-72
2022/02/03 14:22:06;;;;;;;;;;;;;;;12.10;60.89;100154.63;6258501;23;19965;-71
2022/02/03 14:27:27;;;;;;;;;;;;;;;11.99;61.38;100149.22;6256031;23;19950;-74
2022/02/03 14:30:17;;;;;;;;;;;;;;;11.94;62.35;100157.44;6257910;23;20333;-74
2022/02/03 14:32:43;;;;;;;;;;;;;;;11.87;62.64;100155.00;6255485;23;19915;-73
2022/02/03 14:35:11;;;;;;;;;;;;;;;11.80;63.16;100145.44;6259093;23;19908;-72
2022/02/03 14:40:35;;;;;;;;;;;;;;;11.77;63.16;100140.50;6256075;23;20026;-70
2022/02/03 14:43:03;;;;;;;;;;;;;;;11.73;63.71;100142.19;6229781;23;19907;-74
2022/02/03 14:45:29;;;;;;;;;;;;;;;11.66;63.41;100145.22;6231541;23;20250;-73
2022/02/03 14:47:58;;;;;;;;;;;;;;;11.65;63.49;100144.41;6231794;23;19952;-74
2022/02/03 14:50:28;;;;;;;;;;;;;;;11.63;64.46;100143.84;6233691;23;19919;-73
2022/02/03 14:58:16;;;;;;;;;;;;;;;11.50;65.02;100152.66;6236253;23;19926;-73
2022/02/03 15:00:45;;;;;;;;;;;;;;;11.49;64.45;100153.75;6259376;23;20353;-73
2022/02/03 15:03:13;;;;;;;;;;;;;;;11.53;65.17;100157.59;6259995;23;19908;-73
2022/02/03 15:05:40;;;;;;;;;;;;;;;11.55;65.23;100158.13;6208611;23;19923;-74
2022/02/03 15:08:15;;;;;;;;;;;;;;;11.61;64.70;100151.53;6259219;23;19907;-74
2022/02/03 15:10:44;;;;;;;;;;;;;;;11.67;65.08;100158.63;6234225;23;19914;-73
2022/02/03 15:13:19;;;;;;;;;;;;;;;11.73;64.69;100153.16;6258946;23;20345;-74
2022/02/03 15:15:44;;;;;;;;;;;;;;;11.76;64.52;100153.38;6231643;23;19943;-73
2022/02/03 15:18:17;;;;;;;;;;;;;;;11.80;64.91;100150.94;6261913;23;19911;-74
2022/02/03 15:20:44;;;;;;;;;;;;;;;11.77;65.03;100156.94;6259749;23;19912;-75
2022/02/03 15:23:10;;;;;;;;;;;;;;;11.81;64.91;100153.38;6258539;23;20370;-74
2022/02/03 15:25:35;;;;;;;;;;;;;;;11.84;64.66;100154.72;6232842;23;19908;-72
2022/02/03 15:28:03;;;;;;;;;;;;;;;11.91;64.08;100152.50;6233865;23;19915;-76
2022/02/03 15:30:29;;;;;;;;;;;;;;;11.96;64.71;100160.75;6208140;23;20303;-74
2022/02/03 15:32:54;;;;;;;;;;;;;;;11.98;64.36;100147.56;6260771;23;19918;-72
2022/02/03 15:35:37;;;;;;;;;;;;;;;11.98;63.73;100147.56;6259468;23;19912;-73
2022/02/03 15:38:07;;;;;;;;;;;;;;;11.99;64.26;100154.69;6256947;23;19916;-72
2022/02/03 15:40:35;;;;;;;;;;;;;;;11.96;63.53;100149.78;6256573;23;19908;-71
2022/02/03 15:43:04;;;;;;;;;;;;;;;11.93;63.52;100144.84;6231357;23;19915;-73
2022/02/03 15:45:37;;;;;;;;;;;;;;;11.93;63.83;100147.59;6256749;23;19908;-74
2022/02/03 15:48:16;;;;;;;;;;;;;;;11.94;63.93;100146.47;6235376;23;19911;-73
2022/02/03 16:00:09;;;;;;;;;;;;;;;11.83;63.80;100142.16;6207488;23;19908;-74
2022/02/03 16:02:03;;;;;;;;;;;;;;;11.84;63.88;100127.31;6225761;23;19912;-74
2022/02/03 16:18:02;;;;;;;;;;;;;;;11.74;64.57;100124.63;6259372;23;19946;-70
2022/02/03 16:20:36;;;;;;;;;;;;;;;11.69;64.43;100134.50;6248640;23;19908;-70
2022/02/03 16:26:32;;;;;;;;;;;;;;;11.64;64.38;100126.31;6226532;23;20254;-70
2022/02/03 16:52:50;;;;;;;;;;;;;;;11.44;64.85;100132.69;6221048;23;19912;-71
2022/02/03 16:55:19;;;;;;;;;;;;;;;11.42;64.71;100123.94;6218074;23;19956;-71
2022/02/03 16:57:47;;;;;;;;;;;;;;;11.42;65.21;100123.94;6219701;23;19939;-72
2022/02/03 17:00:15;;;;;;;;;;;;;;;11.42;64.54;100123.09;6219031;23;19923;-75
2022/02/03 17:02:41;;;;;;;;;;;;;;;11.46;64.97;100125.03;6195189;23;19982;-72
2022/02/03 17:05:07;;;;;;;;;;;;;;;11.46;64.86;100129.69;6227277;23;19912;-71
2022/02/03 17:07:32;;;;;;;;;;;;;;;11.45;65.22;100131.59;6230415;23;19927;-73
2022/02/03 17:09:58;;;;;;;;;;;;;;;11.43;64.94;100132.97;6227713;23;19912;-73
2022/02/03 17:12:23;;;;;;;;;;;;;;;11.39;65.33;100129.16;6199137;23;19907;-75
2022/02/03 17:14:49;;;;;;;;;;;;;;;11.35;65.14;100129.72;6224161;23;19908;-73
2022/02/03 17:17:20;;;;;;;;;;;;;;;11.36;65.50;100125.06;6221912;23;19998;-74
2022/02/03 17:19:45;;;;;;;;;;;;;;;11.33;65.58;100131.91;6196762;23;19912;-74
2022/02/03 17:22:13;;;;;;;;;;;;;;;11.26;65.54;100131.38;6170887;23;19926;-74
2022/02/03 17:24:44;;;;;;;;;;;;;;;11.25;65.84;100137.13;6221087;23;20200;-74
2022/02/03 17:29:58;;;;;;;;;;;;;;;11.21;65.37;100134.13;6244083;22;19998;-75
2022/02/03 17:55:05;;;;;;;;;;;;;;;10.92;67.11;100142.94;6259149;23;19915;-74
2022/02/03 18:10:37;;;;;;;;;;;;;;;10.81;67.05;100142.13;6262325;23;19926;-73
2022/02/03 18:32:34;;;;;;;;;;;;;;;10.46;69.03;100130.09;6262316;23;19915;-73
2022/02/03 18:46:52;;;;;;;;;;;;;;;10.48;69.47;100127.06;6264525;23;19908;-73
2022/02/03 18:54:23;;;;;;;;;;;;;;;10.39;69.95;100128.72;6261320;23;19915;-72
2022/02/03 18:56:58;;;;;;;;;;;;;;;10.38;70.41;100127.06;6245457;23;20064;-73
2022/02/03 18:59:57;;;;;;;;;;;;;;;10.37;70.37;100120.00;6240276;23;19955;-73
2022/02/03 19:14:22;;;;;;;;;;;;;;;10.40;69.84;100108.50;6249636;23;19918;-74
2022/02/03 19:58:56;;;;;;;;;;;;;;;10.31;68.46;100095.34;6225216;23;19970;-72
2022/02/03 20:05:37;;;;;;;;;;;;;;;10.26;68.36;100083.56;6233586;23;19966;-73
2022/02/03 20:08:15;;;;;;;;;;;;;;;10.27;67.95;100083.31;6228292;23;19912;-72
2022/02/03 20:10:45;;;;;;;;;;;;;;;10.29;68.05;100074.84;6200725;23;19908;-71
2022/02/03 20:13:10;;;;;;;;;;;;;;;10.25;67.62;100074.56;6212383;23;19938;-73
2022/02/03 20:15:40;;;;;;;;;;;;;;;10.24;67.45;100078.38;6182152;23;19912;-74
2022/02/03 20:18:10;;;;;;;;;;;;;;;10.23;67.44;100073.19;6174830;23;19916;-74
2022/02/03 20:20:35;;;;;;;;;;;;;;;10.18;67.58;100068.56;6176458;23;20003;-74
2022/02/03 20:23:03;;;;;;;;;;;;;;;10.08;67.16;100057.63;6206436;23;19975;-74
2022/02/03 20:25:29;;;;;;;;;;;;;;;9.94;67.54;100060.03;6181471;23;19945;-71
2022/02/03 20:27:54;;;;;;;;;;;;;;;9.81;67.48;100063.28;6185644;23;19943;-71
2022/02/03 20:30:19;;;;;;;;;;;;;;;9.68;67.52;100053.69;6197527;23;20362;-73
2022/02/03 20:32:48;;;;;;;;;;;;;;;9.58;67.71;100055.31;6219560;23;19915;-72
2022/02/03 20:35:32;;;;;;;;;;;;;;;;;;;;;
2022/02/03 20:38:08;;;;;;;;;;;;;;;9.54;66.99;100045.22;6242049;23;19934;-74
2022/02/03 21:09:15;;;;;;;;;;;;;;;8.88;72.19;100036.47;6122008;23;20260;-74
2022/02/03 21:11:40;;;;;;;;;;;;;;;9.01;71.93;100031.63;6130442;23;19909;-73
2022/02/03 21:14:17;;;;;;;;;;;;;;;9.02;72.75;100030.53;6108512;23;19909;-70
2022/02/03 21:20:28;;;;;;;;;;;;;;;;;;;;;
2022/02/03 21:26:15;;;;;;;;;;;;;;;9.25;73.38;100038.28;6132266;23;19952;-73
2022/02/03 21:57:45;;;;;;;;;;;;;;;;;;;;;
2022/02/03 22:00:19;;;;;;;;;;;;;;;9.52;72.35;100040.03;5987561;24;19945;-74
2022/02/03 22:03:13;;;;;;;;;;;;;;;9.51;71.88;100032.91;5978912;24;19914;-73
2022/02/03 22:05:51;;;;;;;;;;;;;;;;;;;;;
2022/02/03 22:08:25;;;;;;;;;;;;;;;9.58;71.22;100032.69;5997463;24;19910;-76
2022/02/03 22:11:05;;;;;;;;;;;;;;;;;;;;;
2022/02/03 22:13:39;;;;;;;;;;;;;;;9.61;71.28;100027.47;6221222;23;19947;-75
2022/02/03 22:16:14;;;;;;;;;;;;;;;9.61;70.50;100024.75;6195972;23;19912;-73
2022/02/03 22:18:46;;;;;;;;;;;;;;;9.58;70.86;100029.94;6222970;23;19912;-75
2022/02/03 22:22:03;;;;;;;;;;;;;;;9.59;70.88;100024.22;6225328;23;19987;-75
2022/02/03 22:27:20;;;;;;;;;;;;;;;9.46;71.12;100015.69;6235792;23;20303;-74
2022/02/03 22:44:52;;;;;;;;;;;;;;;;;;;;;
2022/02/03 22:49:40;;;;;;;;;;;;;;;9.16;74.10;100020.78;6103347;23;19976;-73
2022/02/03 22:52:09;;;;;;;;;;;;;;;9.16;74.60;100004.41;6177080;23;19907;-74
2022/02/03 22:54:37;;;;;;;;;;;;;;;9.20;73.90;100004.69;6200046;23;19915;-74
2022/02/03 22:57:02;;;;;;;;;;;;;;;9.10;74.48;100000.03;6189963;23;20006;-76
2022/02/03 23:02:10;;;;;;;;;;;;;;;9.08;74.78;99991.28;6224335;23;19912;-76
2022/02/03 23:04:38;;;;;;;;;;;;;;;9.15;74.80;99999.22;6219575;23;19918;-75
2022/02/03 23:07:20;;;;;;;;;;;;;;;9.08;75.34;99983.09;6197015;23;19912;-71
2022/02/03 23:10:03;;;;;;;;;;;;;;;9.21;74.80;99984.50;6221455;23;19931;-75
2022/02/03 23:21:28;;;;;;;;;;;;;;;9.29;74.61;99977.72;6231578;23;19918;-74
2022/02/03 23:23:53;;;;;;;;;;;;;;;9.32;74.54;99969.81;6220067;23;19908;-73
2022/02/03 23:26:21;;;;;;;;;;;;;;;9.30;74.45;99965.72;6219634;23;20330;-75
2022/02/03 23:28:47;;;;;;;;;;;;;;;9.34;74.78;99961.38;6216077;23;19978;-76
2022/02/03 23:31:14;;;;;;;;;;;;;;;9.35;74.44;99961.09;6232333;23;19923;-75
2022/02/03 23:33:39;;;;;;;;;;;;;;;9.37;74.36;99960.81;6245701;23;19919;-75
2022/02/03 23:36:05;;;;;;;;;;;;;;;9.35;75.01;99957.56;6246739;23;20238;-73
